Terminal Aerodrome Forecast
Issued by NWS

Home | Current Version | Previous Version | Text Only | Print | Product List | Glossary On
Versions: 1 2 3 4 5 6 7 8 9 10 11 12 13 14 15 16 17 18 19 20 21 22 23 24 25 26 27 28 29
000
FTUS46 KPQR 232035 AAA
TAFONP
TAF AMD
KONP 232035Z 2321/2418 33013KT 1/2SM FG OVC001
      TEMPO 2321/2401 3SM BR SCT001
     FM240200 34007KT 1SM BR BKN001
     FM241000 02003KT 1SM BR BKN002
     FM241500 34007KT 5SM BR SKC=

USA.gov is the U.S. government's official web portal to all federal, state and local government web resources and services.